sensor_id;sensor_type;location;lat;lon;timestamp;pressure;altitude;pressure_sealevel;temperature;humidity
64189;BME280;50493;50.970;10.082;2023-04-28T00:00:23;99274.94;;;12.22;45.40
64189;BME280;50493;50.970;10.082;2023-04-28T00:02:49;99281.78;;;12.26;45.02
64189;BME280;50493;50.970;10.082;2023-04-28T00:05:16;99279.50;;;12.15;45.20
64189;BME280;50493;50.970;10.082;2023-04-28T00:07:41;99279.66;;;12.10;45.63
64189;BME280;50493;50.970;10.082;2023-04-28T00:10:08;99276.41;;;12.02;45.67
64189;BME280;50493;50.970;10.082;2023-04-28T00:12:33;99274.88;;;11.93;45.67
64189;BME280;50493;50.970;10.082;2023-04-28T00:14:58;99272.91;;;12.02;45.59
64189;BME280;50493;50.970;10.082;2023-04-28T00:17:24;99261.63;;;11.99;45.54
64189;BME280;50493;50.970;10.082;2023-04-28T00:19:49;99270.53;;;11.94;45.42
64189;BME280;50493;50.970;10.082;2023-04-28T00:22:16;99262.94;;;11.85;44.93
64189;BME280;50493;50.970;10.082;2023-04-28T00:24:41;99261.91;;;11.90;45.27
64189;BME280;50493;50.970;10.082;2023-04-28T00:27:06;99257.66;;;11.86;44.86
64189;BME280;50493;50.970;10.082;2023-04-28T00:29:32;99262.03;;;11.86;45.35
64189;BME280;50493;50.970;10.082;2023-04-28T00:31:57;99258.31;;;11.93;40.81
64189;BME280;50493;50.970;10.082;2023-04-28T00:34:22;99257.38;;;11.95;45.05
64189;BME280;50493;50.970;10.082;2023-04-28T00:36:48;99257.56;;;11.89;44.74
64189;BME280;50493;50.970;10.082;2023-04-28T00:39:15;99266.97;;;11.95;44.46
64189;BME280;50493;50.970;10.082;2023-04-28T00:41:42;99266.34;;;11.87;44.56
64189;BME280;50493;50.970;10.082;2023-04-28T00:44:07;99253.63;;;11.74;45.17
64189;BME280;50493;50.970;10.082;2023-04-28T00:46:33;99248.69;;;11.62;42.70
64189;BME280;50493;50.970;10.082;2023-04-28T00:48:58;99236.75;;;11.52;41.87
64189;BME280;50493;50.970;10.082;2023-04-28T00:51:24;99240.31;;;11.51;43.44
64189;BME280;50493;50.970;10.082;2023-04-28T00:53:51;99239.31;;;11.55;45.12
64189;BME280;50493;50.970;10.082;2023-04-28T00:56:18;99240.31;;;11.51;42.63
64189;BME280;50493;50.970;10.082;2023-04-28T00:58:43;99225.25;;;11.26;45.75
64189;BME280;50493;50.970;10.082;2023-04-28T01:01:09;99237.84;;;11.11;46.20
64189;BME280;50493;50.970;10.082;2023-04-28T01:03:36;99233.56;;;11.09;45.19
64189;BME280;50493;50.970;10.082;2023-04-28T01:06:03;99225.28;;;11.24;45.46
64189;BME280;50493;50.970;10.082;2023-04-28T01:08:29;99225.91;;;11.01;46.20
64189;BME280;50493;50.970;10.082;2023-04-28T01:10:55;99223.38;;;10.98;46.42
64189;BME280;50493;50.970;10.082;2023-04-28T01:13:21;99224.28;;;10.97;46.52
64189;BME280;50493;50.970;10.082;2023-04-28T01:15:47;99219.94;;;10.96;46.54
64189;BME280;50493;50.970;10.082;2023-04-28T01:18:13;99218.19;;;10.96;46.17
64189;BME280;50493;50.970;10.082;2023-04-28T01:20:40;99217.41;;;10.93;42.02
64189;BME280;50493;50.970;10.082;2023-04-28T01:23:10;99209.69;;;10.88;43.64
64189;BME280;50493;50.970;10.082;2023-04-28T01:25:37;99204.91;;;10.70;46.73
64189;BME280;50493;50.970;10.082;2023-04-28T01:28:02;99204.56;;;10.47;44.81
64189;BME280;50493;50.970;10.082;2023-04-28T01:30:28;99206.66;;;10.69;46.42
64189;BME280;50493;50.970;10.082;2023-04-28T01:32:53;99194.38;;;10.73;46.49
64189;BME280;50493;50.970;10.082;2023-04-28T01:35:18;99190.41;;;10.92;44.55
64189;BME280;50493;50.970;10.082;2023-04-28T01:37:44;99189.72;;;10.86;46.19
64189;BME280;50493;50.970;10.082;2023-04-28T01:40:11;99193.88;;;10.21;47.73
64189;BME280;50493;50.970;10.082;2023-04-28T01:42:38;99197.47;;;10.53;46.38
64189;BME280;50493;50.970;10.082;2023-04-28T01:45:04;99195.41;;;10.67;46.73
64189;BME280;50493;50.970;10.082;2023-04-28T01:47:29;99187.97;;;10.85;45.49
64189;BME280;50493;50.970;10.082;2023-04-28T01:49:54;99183.69;;;10.82;46.30
64189;BME280;50493;50.970;10.082;2023-04-28T01:52:20;99177.63;;;10.81;45.97
64189;BME280;50493;50.970;10.082;2023-04-28T01:54:47;99178.53;;;10.44;46.82
64189;BME280;50493;50.970;10.082;2023-04-28T01:57:12;99167.44;;;10.71;45.87
64189;BME280;50493;50.970;10.082;2023-04-28T01:59:39;99168.91;;;10.46;45.32
64189;BME280;50493;50.970;10.082;2023-04-28T02:02:04;99167.00;;;10.53;44.89
64189;BME280;50493;50.970;10.082;2023-04-28T02:04:30;99171.97;;;10.64;45.98
64189;BME280;50493;50.970;10.082;2023-04-28T02:06:55;99170.28;;;10.61;42.58
64189;BME280;50493;50.970;10.082;2023-04-28T02:09:20;99164.88;;;10.30;43.09
64189;BME280;50493;50.970;10.082;2023-04-28T02:11:46;99166.28;;;10.46;46.63
64189;BME280;50493;50.970;10.082;2023-04-28T02:14:11;99164.78;;;10.36;45.87
64189;BME280;50493;50.970;10.082;2023-04-28T02:16:38;99161.25;;;10.39;44.79
64189;BME280;50493;50.970;10.082;2023-04-28T02:19:03;99163.84;;;10.39;46.36
64189;BME280;50493;50.970;10.082;2023-04-28T02:21:29;99165.47;;;10.44;46.43
64189;BME280;50493;50.970;10.082;2023-04-28T02:23:55;99162.38;;;10.63;44.91
64189;BME280;50493;50.970;10.082;2023-04-28T02:26:20;99165.16;;;10.57;46.11
64189;BME280;50493;50.970;10.082;2023-04-28T02:28:46;99152.06;;;10.57;45.93
64189;BME280;50493;50.970;10.082;2023-04-28T02:31:13;99158.31;;;10.51;46.02
64189;BME280;50493;50.970;10.082;2023-04-28T02:33:39;99153.28;;;10.45;45.73
64189;BME280;50493;50.970;10.082;2023-04-28T02:36:07;99155.66;;;10.53;46.29
64189;BME280;50493;50.970;10.082;2023-04-28T02:38:33;99153.06;;;10.53;45.46
64189;BME280;50493;50.970;10.082;2023-04-28T02:40:59;99142.97;;;10.39;46.34
64189;BME280;50493;50.970;10.082;2023-04-28T02:43:25;99144.63;;;10.41;44.98
64189;BME280;50493;50.970;10.082;2023-04-28T02:45:51;99143.47;;;10.53;45.52
64189;BME280;50493;50.970;10.082;2023-04-28T02:48:16;99154.34;;;10.36;46.38
64189;BME280;50493;50.970;10.082;2023-04-28T02:50:43;99139.25;;;10.47;44.35
64189;BME280;50493;50.970;10.082;2023-04-28T02:53:10;99134.19;;;10.41;45.91
64189;BME280;50493;50.970;10.082;2023-04-28T02:55:35;99134.81;;;10.51;45.37
64189;BME280;50493;50.970;10.082;2023-04-28T02:58:00;99141.22;;;10.38;46.21
64189;BME280;50493;50.970;10.082;2023-04-28T03:00:26;99130.00;;;10.34;46.15
64189;BME280;50493;50.970;10.082;2023-04-28T03:02:51;99130.41;;;10.52;45.60
64189;BME280;50493;50.970;10.082;2023-04-28T03:05:17;99128.13;;;10.39;46.03
64189;BME280;50493;50.970;10.082;2023-04-28T03:07:44;99119.03;;;10.56;45.54
64189;BME280;50493;50.970;10.082;2023-04-28T03:10:09;99117.75;;;10.36;46.09
64189;BME280;50493;50.970;10.082;2023-04-28T03:12:34;99121.97;;;10.42;45.64
64189;BME280;50493;50.970;10.082;2023-04-28T03:15:00;99119.47;;;10.37;45.89
64189;BME280;50493;50.970;10.082;2023-04-28T03:17:26;99121.03;;;10.44;45.69
64189;BME280;50493;50.970;10.082;2023-04-28T03:19:51;99112.78;;;10.61;45.15
64189;BME280;50493;50.970;10.082;2023-04-28T03:22:16;99106.16;;;10.48;45.47
64189;BME280;50493;50.970;10.082;2023-04-28T03:24:43;99106.16;;;10.48;45.55
64189;BME280;50493;50.970;10.082;2023-04-28T03:27:08;99108.84;;;10.45;45.36
64189;BME280;50493;50.970;10.082;2023-04-28T03:29:34;99107.59;;;10.24;45.85
64189;BME280;50493;50.970;10.082;2023-04-28T03:31:59;99104.97;;;10.24;46.04
64189;BME280;50493;50.970;10.082;2023-04-28T03:34:24;99103.91;;;10.31;52.68
64189;BME280;50493;50.970;10.082;2023-04-28T03:36:50;99103.94;;;9.95;49.98
64189;BME280;50493;50.970;10.082;2023-04-28T03:39:15;99104.25;;;9.40;50.77
64189;BME280;50493;50.970;10.082;2023-04-28T03:41:42;99101.47;;;9.50;49.29
64189;BME280;50493;50.970;10.082;2023-04-28T03:44:07;99088.22;;;9.59;48.26
64189;BME280;50493;50.970;10.082;2023-04-28T03:46:32;99088.84;;;9.69;48.69
64189;BME280;50493;50.970;10.082;2023-04-28T03:48:58;99085.00;;;9.85;47.44
64189;BME280;50493;50.970;10.082;2023-04-28T03:51:24;99084.69;;;9.99;46.94
64189;BME280;50493;50.970;10.082;2023-04-28T03:53:49;99089.16;;;9.94;46.97
64189;BME280;50493;50.970;10.082;2023-04-28T03:56:15;99087.13;;;10.05;46.67
64189;BME280;50493;50.970;10.082;2023-04-28T03:58:42;99092.44;;;10.02;46.65
64189;BME280;50493;50.970;10.082;2023-04-28T04:01:07;99083.78;;;10.00;46.70
64189;BME280;50493;50.970;10.082;2023-04-28T04:03:32;99081.94;;;10.04;46.30
64189;BME280;50493;50.970;10.082;2023-04-28T04:05:58;99079.38;;;10.02;46.61
64189;BME280;50493;50.970;10.082;2023-04-28T04:08:23;99078.41;;;10.06;46.33
64189;BME280;50493;50.970;10.082;2023-04-28T04:10:49;99076.63;;;10.08;45.51
64189;BME280;50493;50.970;10.082;2023-04-28T04:13:14;99076.09;;;9.94;46.60
64189;BME280;50493;50.970;10.082;2023-04-28T04:15:41;99077.88;;;9.92;46.61
64189;BME280;50493;50.970;10.082;2023-04-28T04:18:06;99070.13;;;9.89;46.68
64189;BME280;50493;50.970;10.082;2023-04-28T04:20:31;99066.72;;;9.87;46.67
64189;BME280;50493;50.970;10.082;2023-04-28T04:22:56;99061.53;;;9.84;46.78
64189;BME280;50493;50.970;10.082;2023-04-28T04:25:22;99064.00;;;9.90;46.30
64189;BME280;50493;50.970;10.082;2023-04-28T04:27:47;99060.47;;;9.92;46.68
64189;BME280;50493;50.970;10.082;2023-04-28T04:30:13;99065.66;;;9.94;47.04
64189;BME280;50493;50.970;10.082;2023-04-28T04:32:39;99070.59;;;9.69;47.11
64189;BME280;50493;50.970;10.082;2023-04-28T04:35:05;99075.03;;;9.65;47.83
64189;BME280;50493;50.970;10.082;2023-04-28T04:37:32;99078.66;;;9.58;48.07
64189;BME280;50493;50.970;10.082;2023-04-28T04:39:57;99072.69;;;9.53;48.18
64189;BME280;50493;50.970;10.082;2023-04-28T04:42:23;99072.41;;;9.26;53.16
64189;BME280;50493;50.970;10.082;2023-04-28T04:44:48;99063.66;;;8.85;61.58
64189;BME280;50493;50.970;10.082;2023-04-28T04:47:13;99070.94;;;8.67;57.04
64189;BME280;50493;50.970;10.082;2023-04-28T04:49:40;99069.25;;;8.65;56.45
64189;BME280;50493;50.970;10.082;2023-04-28T04:52:05;99069.91;;;8.74;55.69
64189;BME280;50493;50.970;10.082;2023-04-28T04:54:31;99074.41;;;8.68;55.76
64189;BME280;50493;50.970;10.082;2023-04-28T04:56:56;99074.06;;;8.85;53.95
64189;BME280;50493;50.970;10.082;2023-04-28T04:59:21;99079.03;;;8.99;53.07
64189;BME280;50493;50.970;10.082;2023-04-28T05:01:47;99075.50;;;9.01;52.24
64189;BME280;50493;50.970;10.082;2023-04-28T05:04:12;99074.44;;;9.11;52.80
64189;BME280;50493;50.970;10.082;2023-04-28T05:06:39;99071.72;;;9.16;55.97
64189;BME280;50493;50.970;10.082;2023-04-28T05:09:04;99065.78;;;9.11;51.87
64189;BME280;50493;50.970;10.082;2023-04-28T05:11:30;99062.47;;;9.01;51.62
64189;BME280;50493;50.970;10.082;2023-04-28T05:13:55;99064.09;;;9.07;53.26
64189;BME280;50493;50.970;10.082;2023-04-28T05:16:20;99067.44;;;9.15;60.11
64189;BME280;50493;50.970;10.082;2023-04-28T05:18:46;99064.50;;;8.87;51.64
64189;BME280;50493;50.970;10.082;2023-04-28T05:21:11;99056.66;;;8.87;51.26
64189;BME280;50493;50.970;10.082;2023-04-28T05:23:38;99057.34;;;8.98;56.34
64189;BME280;50493;50.970;10.082;2023-04-28T05:26:03;99061.81;;;8.90;52.72
64189;BME280;50493;50.970;10.082;2023-04-28T05:28:29;99053.91;;;8.94;50.10
64189;BME280;50493;50.970;10.082;2023-04-28T05:30:54;99057.41;;;8.95;53.70
64189;BME280;50493;50.970;10.082;2023-04-28T05:33:20;99062.84;;;8.83;51.08
64189;BME280;50493;50.970;10.082;2023-04-28T05:35:45;99054.72;;;8.98;51.81
64189;BME280;50493;50.970;10.082;2023-04-28T05:38:11;99058.81;;;9.11;52.80
64189;BME280;50493;50.970;10.082;2023-04-28T05:40:38;99045.69;;;9.15;52.71
64189;BME280;50493;50.970;10.082;2023-04-28T05:43:03;99052.19;;;8.93;51.15
64189;BME280;50493;50.970;10.082;2023-04-28T05:45:28;99047.78;;;8.97;50.83
64189;BME280;50493;50.970;10.082;2023-04-28T05:47:54;99044.16;;;9.06;50.74
64189;BME280;50493;50.970;10.082;2023-04-28T05:50:20;99039.84;;;9.03;50.85
64189;BME280;50493;50.970;10.082;2023-04-28T05:52:45;99040.88;;;8.93;51.31
64189;BME280;50493;50.970;10.082;2023-04-28T05:55:11;99047.03;;;8.90;53.79
64189;BME280;50493;50.970;10.082;2023-04-28T05:57:38;99050.44;;;8.95;50.89
64189;BME280;50493;50.970;10.082;2023-04-28T06:00:04;99044.03;;;9.10;50.54
64189;BME280;50493;50.970;10.082;2023-04-28T06:02:29;99041.31;;;9.17;50.74
64189;BME280;50493;50.970;10.082;2023-04-28T06:04:55;99027.47;;;9.13;50.64
64189;BME280;50493;50.970;10.082;2023-04-28T06:07:20;99034.25;;;9.20;50.65
64189;BME280;50493;50.970;10.082;2023-04-28T06:09:45;99033.53;;;9.13;49.99
64189;BME280;50493;50.970;10.082;2023-04-28T06:12:11;99032.56;;;9.18;50.77
64189;BME280;50493;50.970;10.082;2023-04-28T06:14:38;99036.78;;;9.25;49.37
64189;BME280;50493;50.970;10.082;2023-04-28T06:17:04;99032.47;;;9.24;49.42
64189;BME280;50493;50.970;10.082;2023-04-28T06:19:30;99038.50;;;9.26;50.27
64189;BME280;50493;50.970;10.082;2023-04-28T06:21:55;99037.78;;;9.19;50.22
64189;BME280;50493;50.970;10.082;2023-04-28T06:24:21;99046.16;;;9.34;55.62
64189;BME280;50493;50.970;10.082;2023-04-28T06:26:46;99040.47;;;9.15;49.88
64189;BME280;50493;50.970;10.082;2023-04-28T06:29:11;99042.13;;;9.19;49.99
64189;BME280;50493;50.970;10.082;2023-04-28T06:31:38;99028.31;;;9.13;49.71
64189;BME280;50493;50.970;10.082;2023-04-28T06:34:03;99032.34;;;9.28;52.15
64189;BME280;50493;50.970;10.082;2023-04-28T06:36:29;99031.53;;;9.26;49.54
64189;BME280;50493;50.970;10.082;2023-04-28T06:38:54;99038.56;;;9.23;51.12
64189;BME280;50493;50.970;10.082;2023-04-28T06:41:20;99032.53;;;9.21;50.04
64189;BME280;50493;50.970;10.082;2023-04-28T06:43:45;99033.78;;;9.42;50.19
64189;BME280;50493;50.970;10.082;2023-04-28T06:46:10;99037.91;;;9.13;50.90
64189;BME280;50493;50.970;10.082;2023-04-28T06:48:37;99032.03;;;9.03;55.97
64189;BME280;50493;50.970;10.082;2023-04-28T06:51:03;99037.50;;;8.88;62.86
64189;BME280;50493;50.970;10.082;2023-04-28T06:53:28;99038.00;;;8.63;65.45
64189;BME280;50493;50.970;10.082;2023-04-28T06:55:53;99035.16;;;8.30;67.40
64189;BME280;50493;50.970;10.082;2023-04-28T06:58:20;99029.72;;;8.42;61.12
64189;BME280;50493;50.970;10.082;2023-04-28T07:00:46;99028.53;;;8.59;65.13
64189;BME280;50493;50.970;10.082;2023-04-28T07:03:11;99029.09;;;7.76;74.50
64189;BME280;50493;50.970;10.082;2023-04-28T07:05:38;99026.31;;;7.89;72.42
64189;BME280;50493;50.970;10.082;2023-04-28T07:08:04;99021.44;;;8.19;57.50
64189;BME280;50493;50.970;10.082;2023-04-28T07:10:29;99021.84;;;8.45;53.75
64189;BME280;50493;50.970;10.082;2023-04-28T07:12:54;99025.75;;;8.68;53.49
64189;BME280;50493;50.970;10.082;2023-04-28T07:15:20;99023.59;;;8.89;57.88
64189;BME280;50493;50.970;10.082;2023-04-28T07:17:45;99032.16;;;8.97;55.54
64189;BME280;50493;50.970;10.082;2023-04-28T07:20:11;99033.81;;;9.01;51.05
64189;BME280;50493;50.970;10.082;2023-04-28T07:22:38;99041.56;;;9.04;51.05
64189;BME280;50493;50.970;10.082;2023-04-28T07:25:04;99037.91;;;9.13;51.06
64189;BME280;50493;50.970;10.082;2023-04-28T07:27:30;99031.47;;;9.29;52.65
64189;BME280;50493;50.970;10.082;2023-04-28T07:29:56;99025.63;;;9.18;50.33
64189;BME280;50493;50.970;10.082;2023-04-28T07:32:21;99030.22;;;9.05;53.53
64189;BME280;50493;50.970;10.082;2023-04-28T07:34:48;99022.53;;;9.01;54.86
64189;BME280;50493;50.970;10.082;2023-04-28T07:37:13;99016.63;;;8.91;55.42
64189;BME280;50493;50.970;10.082;2023-04-28T07:39:40;99018.53;;;8.83;63.15
64189;BME280;50493;50.970;10.082;2023-04-28T07:42:06;99018.00;;;8.63;63.98
64189;BME280;50493;50.970;10.082;2023-04-28T07:44:31;99017.38;;;8.04;68.21
64189;BME280;50493;50.970;10.082;2023-04-28T07:46:58;99016.00;;;7.83;70.41
64189;BME280;50493;50.970;10.082;2023-04-28T07:49:23;99013.75;;;8.12;57.14
64189;BME280;50493;50.970;10.082;2023-04-28T07:51:49;99016.25;;;8.19;68.32
64189;BME280;50493;50.970;10.082;2023-04-28T07:54:17;99034.13;;;8.39;54.52
64189;BME280;50493;50.970;10.082;2023-04-28T07:56:44;99028.66;;;8.51;53.17
64189;BME280;50493;50.970;10.082;2023-04-28T07:59:09;99026.56;;;8.72;52.54
64189;BME280;50493;50.970;10.082;2023-04-28T08:01:35;99043.28;;;8.60;56.55
64189;BME280;50493;50.970;10.082;2023-04-28T08:04:00;99035.13;;;8.78;54.15
64189;BME280;50493;50.970;10.082;2023-04-28T08:06:26;99030.47;;;8.93;59.73
64189;BME280;50493;50.970;10.082;2023-04-28T08:08:53;99004.38;;;8.51;61.58
64189;BME280;50493;50.970;10.082;2023-04-28T08:11:18;98993.00;;;8.55;62.05
64189;BME280;50493;50.970;10.082;2023-04-28T08:13:45;98996.03;;;8.77;54.90
64189;BME280;50493;50.970;10.082;2023-04-28T08:16:11;98995.53;;;9.03;60.61
64189;BME280;50493;50.970;10.082;2023-04-28T08:18:36;98991.50;;;9.29;55.91
64189;BME280;50493;50.970;10.082;2023-04-28T08:21:02;98986.47;;;9.20;52.77
64189;BME280;50493;50.970;10.082;2023-04-28T08:23:27;98974.78;;;9.36;53.65
64189;BME280;50493;50.970;10.082;2023-04-28T08:25:54;98972.97;;;9.40;50.63
64189;BME280;50493;50.970;10.082;2023-04-28T08:28:20;98974.03;;;9.69;49.81
64189;BME280;50493;50.970;10.082;2023-04-28T08:30:46;98966.06;;;10.08;48.11
64189;BME280;50493;50.970;10.082;2023-04-28T08:33:12;98974.59;;;10.47;55.43
64189;BME280;50493;50.970;10.082;2023-04-28T08:35:37;98974.97;;;10.34;50.06
64189;BME280;50493;50.970;10.082;2023-04-28T08:38:03;98971.84;;;10.21;48.51
64189;BME280;50493;50.970;10.082;2023-04-28T08:40:29;98975.09;;;10.29;60.35
64189;BME280;50493;50.970;10.082;2023-04-28T08:42:55;98960.94;;;9.70;63.32
64189;BME280;50493;50.970;10.082;2023-04-28T08:45:22;98963.25;;;10.16;50.80
64189;BME280;50493;50.970;10.082;2023-04-28T08:47:50;98969.56;;;10.08;50.47
64189;BME280;50493;50.970;10.082;2023-04-28T08:50:19;98962.56;;;10.09;48.82
64189;BME280;50493;50.970;10.082;2023-04-28T08:52:46;98963.63;;;10.02;50.18
64189;BME280;50493;50.970;10.082;2023-04-28T08:55:12;98965.38;;;10.01;49.54
64189;BME280;50493;50.970;10.082;2023-04-28T08:57:39;98966.44;;;10.27;61.34
64189;BME280;50493;50.970;10.082;2023-04-28T09:00:08;98968.94;;;10.30;51.60
64189;BME280;50493;50.970;10.082;2023-04-28T09:02:33;98962.09;;;9.93;49.88
64189;BME280;50493;50.970;10.082;2023-04-28T09:05:00;98962.53;;;10.10;49.87
64189;BME280;50493;50.970;10.082;2023-04-28T09:07:26;98966.53;;;9.89;49.45
64189;BME280;50493;50.970;10.082;2023-04-28T09:10:14;98962.75;;;9.68;50.94
64189;BME280;50493;50.970;10.082;2023-04-28T09:12:40;98965.91;;;9.79;63.08
64189;BME280;50493;50.970;10.082;2023-04-28T09:15:06;98958.50;;;9.97;49.54
64189;BME280;50493;50.970;10.082;2023-04-28T09:17:46;98963.66;;;10.00;49.98
64189;BME280;50493;50.970;10.082;2023-04-28T09:20:19;98951.78;;;10.21;48.46
64189;BME280;50493;50.970;10.082;2023-04-28T09:22:45;98948.16;;;9.94;60.92
64189;BME280;50493;50.970;10.082;2023-04-28T09:25:11;98957.16;;;9.46;67.63
64189;BME280;50493;50.970;10.082;2023-04-28T09:27:36;98952.75;;;10.50;63.82
64189;BME280;50493;50.970;10.082;2023-04-28T09:30:02;98942.47;;;10.12;50.14
64189;BME280;50493;50.970;10.082;2023-04-28T09:32:28;98956.78;;;9.97;64.89
64189;BME280;50493;50.970;10.082;2023-04-28T09:34:55;98948.19;;;10.25;65.23
64189;BME280;50493;50.970;10.082;2023-04-28T09:37:24;98946.03;;;10.73;65.25
64189;BME280;50493;50.970;10.082;2023-04-28T09:39:52;98941.94;;;10.62;49.43
64189;BME280;50493;50.970;10.082;2023-04-28T09:42:30;98940.88;;;11.00;61.87
64189;BME280;50493;50.970;10.082;2023-04-28T09:44:59;98948.00;;;10.33;67.41
64189;BME280;50493;50.970;10.082;2023-04-28T09:47:26;98950.28;;;11.05;59.64
64189;BME280;50493;50.970;10.082;2023-04-28T09:49:54;98944.94;;;11.08;61.10
64189;BME280;50493;50.970;10.082;2023-04-28T09:52:22;98953.00;;;10.08;63.79
64189;BME280;50493;50.970;10.082;2023-04-28T09:54:49;98955.09;;;9.95;65.85
64189;BME280;50493;50.970;10.082;2023-04-28T09:57:15;98947.84;;;10.69;63.60
64189;BME280;50493;50.970;10.082;2023-04-28T09:59:42;98941.97;;;11.21;58.15
64189;BME280;50493;50.970;10.082;2023-04-28T10:02:11;98935.50;;;11.04;60.95
64189;BME280;50493;50.970;10.082;2023-04-28T10:04:38;98937.03;;;11.11;59.33
64189;BME280;50493;50.970;10.082;2023-04-28T10:07:04;98931.63;;;11.44;60.24
64189;BME280;50493;50.970;10.082;2023-04-28T10:09:31;98937.50;;;11.51;61.10
64189;BME280;50493;50.970;10.082;2023-04-28T10:11:57;98941.69;;;11.57;59.67
64189;BME280;50493;50.970;10.082;2023-04-28T10:14:23;98945.72;;;11.40;58.29
64189;BME280;50493;50.970;10.082;2023-04-28T10:16:49;98947.47;;;11.68;54.07
64189;BME280;50493;50.970;10.082;2023-04-28T10:19:16;98938.47;;;12.02;57.27
64189;BME280;50493;50.970;10.082;2023-04-28T10:21:46;98933.78;;;11.58;61.25
64189;BME280;50493;50.970;10.082;2023-04-28T10:24:24;98933.41;;;11.15;61.36
64189;BME280;50493;50.970;10.082;2023-04-28T10:27:06;98922.03;;;11.97;59.73
64189;BME280;50493;50.970;10.082;2023-04-28T10:29:32;98920.13;;;11.22;60.99
64189;BME280;50493;50.970;10.082;2023-04-28T10:32:19;98916.22;;;11.62;59.29
64189;BME280;50493;50.970;10.082;2023-04-28T10:34:45;98913.00;;;11.27;63.07
64189;BME280;50493;50.970;10.082;2023-04-28T10:37:11;98900.28;;;11.43;59.17
64189;BME280;50493;50.970;10.082;2023-04-28T10:39:39;98899.91;;;11.27;60.17
64189;BME280;50493;50.970;10.082;2023-04-28T10:45:07;98893.28;;;10.58;64.34
64189;BME280;50493;50.970;10.082;2023-04-28T10:47:59;98874.50;;;10.75;58.99
64189;BME280;50493;50.970;10.082;2023-04-28T10:50:28;98878.88;;;11.03;57.11
64189;BME280;50493;50.970;10.082;2023-04-28T10:52:55;98877.66;;;11.92;60.65
64189;BME280;50493;50.970;10.082;2023-04-28T10:55:30;98877.94;;;10.76;63.52
64189;BME280;50493;50.970;10.082;2023-04-28T10:58:33;98877.16;;;10.74;68.42
64189;BME280;50493;50.970;10.082;2023-04-28T11:01:23;98874.34;;;11.35;64.87
64189;BME280;50493;50.970;10.082;2023-04-28T11:03:50;98881.06;;;10.29;69.73
64189;BME280;50493;50.970;10.082;2023-04-28T11:06:19;98887.03;;;11.74;64.73
64189;BME280;50493;50.970;10.082;2023-04-28T11:08:46;98886.38;;;12.18;60.61
64189;BME280;50493;50.970;10.082;2023-04-28T11:11:22;98887.56;;;12.57;59.51
64189;BME280;50493;50.970;10.082;2023-04-28T11:13:52;98885.06;;;12.06;61.01
64189;BME280;50493;50.970;10.082;2023-04-28T11:16:20;98878.25;;;11.22;64.77
64189;BME280;50493;50.970;10.082;2023-04-28T11:18:51;98882.53;;;11.51;61.91
64189;BME280;50493;50.970;10.082;2023-04-28T11:21:18;98874.59;;;10.72;67.81
64189;BME280;50493;50.970;10.082;2023-04-28T11:23:44;98880.00;;;10.94;65.85
64189;BME280;50493;50.970;10.082;2023-04-28T11:26:10;98866.59;;;11.84;63.45
64189;BME280;50493;50.970;10.082;2023-04-28T11:28:35;98870.84;;;12.36;60.48
64189;BME280;50493;50.970;10.082;2023-04-28T11:31:13;98872.19;;;12.47;59.93
64189;BME280;50493;50.970;10.082;2023-04-28T11:33:45;98862.94;;;13.07;58.47
64189;BME280;50493;50.970;10.082;2023-04-28T11:36:21;98863.34;;;13.18;57.71
64189;BME280;50493;50.970;10.082;2023-04-28T11:38:46;98869.28;;;12.77;58.48
64189;BME280;50493;50.970;10.082;2023-04-28T11:41:13;98863.94;;;13.25;58.47
64189;BME280;50493;50.970;10.082;2023-04-28T11:43:38;98865.41;;;13.32;57.11
64189;BME280;50493;50.970;10.082;2023-04-28T11:46:06;98862.94;;;13.70;55.41
64189;BME280;50493;50.970;10.082;2023-04-28T11:48:33;98856.25;;;13.83;54.49
64189;BME280;50493;50.970;10.082;2023-04-28T11:50:59;98855.25;;;13.45;56.80
64189;BME280;50493;50.970;10.082;2023-04-28T11:53:39;98858.72;;;12.80;61.09
64189;BME280;50493;50.970;10.082;2023-04-28T11:56:05;98860.22;;;12.16;61.55
64189;BME280;50493;50.970;10.082;2023-04-28T11:58:34;98852.56;;;12.34;62.19
64189;BME280;50493;50.970;10.082;2023-04-28T12:01:06;98847.75;;;12.69;60.77
64189;BME280;50493;50.970;10.082;2023-04-28T12:03:41;98851.16;;;12.95;58.96
64189;BME280;50493;50.970;10.082;2023-04-28T12:06:07;98842.34;;;13.18;57.66
64189;BME280;50493;50.970;10.082;2023-04-28T12:08:32;98839.16;;;13.32;58.25
64189;BME280;50493;50.970;10.082;2023-04-28T12:11:07;98840.56;;;12.28;61.86
64189;BME280;50493;50.970;10.082;2023-04-28T12:13:37;98841.28;;;13.44;57.38
64189;BME280;50493;50.970;10.082;2023-04-28T12:16:04;98833.91;;;13.73;58.34
64189;BME280;50493;50.970;10.082;2023-04-28T12:18:30;98830.09;;;13.80;55.60
64189;BME280;50493;50.970;10.082;2023-04-28T12:20:57;98827.56;;;13.15;59.27
64189;BME280;50493;50.970;10.082;2023-04-28T12:23:28;98824.22;;;14.53;54.77
64189;BME280;50493;50.970;10.082;2023-04-28T12:25:54;98824.31;;;13.10;61.21
64189;BME280;50493;50.970;10.082;2023-04-28T12:28:19;98821.06;;;12.36;63.76
64189;BME280;50493;50.970;10.082;2023-04-28T12:30:45;98817.66;;;13.44;60.45
64189;BME280;50493;50.970;10.082;2023-04-28T12:33:23;98805.75;;;14.55;55.55
64189;BME280;50493;50.970;10.082;2023-04-28T12:35:49;98811.94;;;14.54;55.39
64189;BME280;50493;50.970;10.082;2023-04-28T12:38:16;98805.72;;;14.74;54.17
64189;BME280;50493;50.970;10.082;2023-04-28T12:40:42;98806.72;;;15.60;54.67
64189;BME280;50493;50.970;10.082;2023-04-28T12:43:07;98802.19;;;15.29;53.88
64189;BME280;50493;50.970;10.082;2023-04-28T12:45:32;98805.13;;;15.05;54.46
64189;BME280;50493;50.970;10.082;2023-04-28T12:47:58;98802.31;;;15.61;54.94
64189;BME280;50493;50.970;10.082;2023-04-28T12:50:24;98805.88;;;15.25;53.90
64189;BME280;50493;50.970;10.082;2023-04-28T12:52:50;98802.16;;;14.75;53.86
64189;BME280;50493;50.970;10.082;2023-04-28T12:55:16;98810.75;;;14.42;59.27